sensor_id;sensor_type;location;lat;lon;timestamp;temperature;humidity
33811;DHT22;20119;48.334;16.206;2023-05-07T03:53:52;9.90;99.90
33811;DHT22;20119;48.334;16.206;2023-05-07T03:57:03;9.90;99.90
33811;DHT22;20119;48.334;16.206;2023-05-07T04:00:00;9.90;99.90
33811;DHT22;20119;48.334;16.206;2023-05-07T04:02:55;10.00;99.90
33811;DHT22;20119;48.334;16.206;2023-05-07T04:05:42;10.00;99.90
33811;DHT22;20119;48.334;16.206;2023-05-07T04:19:21;10.30;99.90
33811;DHT22;20119;48.334;16.206;2023-05-07T04:24:47;10.60;99.90
33811;DHT22;20119;48.334;16.206;2023-05-07T04:44:20;11.70;99.90
33811;DHT22;20119;48.334;16.206;2023-05-07T04:47:11;11.80;99.90
33811;DHT22;20119;48.334;16.206;2023-05-07T05:08:39;12.50;99.90
33811;DHT22;20119;48.334;16.206;2023-05-07T11:55:49;20.30;99.90
33811;DHT22;20119;48.334;16.206;2023-05-07T16:22:38;16.40;99.90
33811;DHT22;20119;48.334;16.206;2023-05-07T18:43:38;11.30;99.90
33811;DHT22;20119;48.334;16.206;2023-05-07T18:46:06;11.20;99.90
33811;DHT22;20119;48.334;16.206;2023-05-07T18:48:35;11.10;99.90
33811;DHT22;20119;48.334;16.206;2023-05-07T18:51:04;11.10;99.90
33811;DHT22;20119;48.334;16.206;2023-05-07T18:53:33;11.00;99.90
33811;DHT22;20119;48.334;16.206;2023-05-07T18:56:00;11.00;99.90
33811;DHT22;20119;48.334;16.206;2023-05-07T18:58:28;10.80;99.90
33811;DHT22;20119;48.334;16.206;2023-05-07T19:00:57;10.70;99.90
33811;DHT22;20119;48.334;16.206;2023-05-07T19:03:25;10.70;99.90
33811;DHT22;20119;48.334;16.206;2023-05-07T19:05:52;10.60;99.90
33811;DHT22;20119;48.334;16.206;2023-05-07T19:08:21;10.60;99.90
33811;DHT22;20119;48.334;16.206;2023-05-07T19:10:48;10.50;99.90
33811;DHT22;20119;48.334;16.206;2023-05-07T19:13:16;10.30;99.90
33811;DHT22;20119;48.334;16.206;2023-05-07T19:18:22;10.20;99.90
33811;DHT22;20119;48.334;16.206;2023-05-07T19:20:50;10.20;99.90
33811;DHT22;20119;48.334;16.206;2023-05-07T19:23:18;10.00;99.90
33811;DHT22;20119;48.334;16.206;2023-05-07T19:25:47;10.00;99.90
33811;DHT22;20119;48.334;16.206;2023-05-07T19:28:15;10.00;99.90
33811;DHT22;20119;48.334;16.206;2023-05-07T19:30:43;9.90;99.90
33811;DHT22;20119;48.334;16.206;2023-05-07T19:56:53;9.40;99.90
33811;DHT22;20119;48.334;16.206;2023-05-07T20:56:43;8.50;99.90
33811;DHT22;20119;48.334;16.206;2023-05-07T20:59:21;8.50;99.90
33811;DHT22;20119;48.334;16.206;2023-05-07T21:01:59;8.50;99.90
33811;DHT22;20119;48.334;16.206;2023-05-07T21:04:33;8.40;99.90
33811;DHT22;20119;48.334;16.206;2023-05-07T21:07:02;8.40;99.90
33811;DHT22;20119;48.334;16.206;2023-05-07T21:09:35;8.40;99.90
33811;DHT22;20119;48.334;16.206;2023-05-07T21:12:06;8.40;99.90
33811;DHT22;20119;48.334;16.206;2023-05-07T21:14:36;8.30;99.90
33811;DHT22;20119;48.334;16.206;2023-05-07T21:17:11;8.30;99.90
33811;DHT22;20119;48.334;16.206;2023-05-07T21:19:40;8.20;99.90
33811;DHT22;20119;48.334;16.206;2023-05-07T21:25:05;8.20;99.90
33811;DHT22;20119;48.334;16.206;2023-05-07T21:27:44;8.20;99.90
33811;DHT22;20119;48.334;16.206;2023-05-07T21:30:13;8.20;99.90
33811;DHT22;20119;48.334;16.206;2023-05-07T21:32:52;8.10;99.90
33811;DHT22;20119;48.334;16.206;2023-05-07T21:35:26;8.10;99.90
33811;DHT22;20119;48.334;16.206;2023-05-07T21:38:00;8.10;99.90
33811;DHT22;20119;48.334;16.206;2023-05-07T21:40:29;8.10;99.90
33811;DHT22;20119;48.334;16.206;2023-05-07T21:43:04;8.00;99.90
33811;DHT22;20119;48.334;16.206;2023-05-07T21:45:36;7.90;99.90
33811;DHT22;20119;48.334;16.206;2023-05-07T21:48:19;7.90;99.90
33811;DHT22;20119;48.334;16.206;2023-05-07T21:51:02;7.90;99.90
33811;DHT22;20119;48.334;16.206;2023-05-07T21:53:59;7.90;99.90
33811;DHT22;20119;48.334;16.206;2023-05-07T21:56:45;7.90;99.90
33811;DHT22;20119;48.334;16.206;2023-05-07T21:59:24;7.90;99.90
33811;DHT22;20119;48.334;16.206;2023-05-07T22:01:58;7.70;99.90
33811;DHT22;20119;48.334;16.206;2023-05-07T22:04:37;7.80;99.90
33811;DHT22;20119;48.334;16.206;2023-05-07T22:07:23;7.80;99.90
33811;DHT22;20119;48.334;16.206;2023-05-07T22:09:52;7.70;99.90
33811;DHT22;20119;48.334;16.206;2023-05-07T22:12:38;7.80;99.90
33811;DHT22;20119;48.334;16.206;2023-05-07T22:15:17;7.80;99.90
33811;DHT22;20119;48.334;16.206;2023-05-07T22:17:45;7.80;99.90
33811;DHT22;20119;48.334;16.206;2023-05-07T22:20:18;7.70;99.90
33811;DHT22;20119;48.334;16.206;2023-05-07T22:22:48;7.70;99.90
33811;DHT22;20119;48.334;16.206;2023-05-07T22:25:15;7.70;99.90
33811;DHT22;20119;48.334;16.206;2023-05-07T22:27:44;7.60;99.90
33811;DHT22;20119;48.334;16.206;2023-05-07T22:30:15;7.60;99.90
33811;DHT22;20119;48.334;16.206;2023-05-07T22:32:48;7.60;99.90
33811;DHT22;20119;48.334;16.206;2023-05-07T22:35:16;7.60;99.90
33811;DHT22;20119;48.334;16.206;2023-05-07T22:37:43;7.60;99.90
33811;DHT22;20119;48.334;16.206;2023-05-07T22:40:12;7.60;99.90
33811;DHT22;20119;48.334;16.206;2023-05-07T22:42:41;7.60;99.90
33811;DHT22;20119;48.334;16.206;2023-05-07T22:45:18;7.60;99.90
33811;DHT22;20119;48.334;16.206;2023-05-07T22:48:00;7.60;99.90
33811;DHT22;20119;48.334;16.206;2023-05-07T22:50:44;7.60;99.90
33811;DHT22;20119;48.334;16.206;2023-05-07T22:53:12;7.60;99.90
33811;DHT22;20119;48.334;16.206;2023-05-07T22:55:43;7.50;99.90
33811;DHT22;20119;48.334;16.206;2023-05-07T22:58:11;7.50;99.90
33811;DHT22;20119;48.334;16.206;2023-05-07T23:00:43;7.50;99.90
33811;DHT22;20119;48.334;16.206;2023-05-07T23:03:15;7.60;99.90
33811;DHT22;20119;48.334;16.206;2023-05-07T23:05:44;7.60;99.90
33811;DHT22;20119;48.334;16.206;2023-05-07T23:08:13;7.60;99.90
33811;DHT22;20119;48.334;16.206;2023-05-07T23:10:54;7.60;99.90
33811;DHT22;20119;48.334;16.206;2023-05-07T23:13:28;7.60;99.90
33811;DHT22;20119;48.334;16.206;2023-05-07T23:16:29;7.60;99.90
33811;DHT22;20119;48.334;16.206;2023-05-07T23:19:11;7.60;99.90
33811;DHT22;20119;48.334;16.206;2023-05-07T23:21:59;7.60;99.90
33811;DHT22;20119;48.334;16.206;2023-05-07T23:24:41;7.60;99.90
33811;DHT22;20119;48.334;16.206;2023-05-07T23:27:17;7.60;99.90
33811;DHT22;20119;48.334;16.206;2023-05-07T23:29:49;7.60;99.90
33811;DHT22;20119;48.334;16.206;2023-05-07T23:32:24;7.60;99.90
33811;DHT22;20119;48.334;16.206;2023-05-07T23:34:58;7.50;99.90
33811;DHT22;20119;48.334;16.206;2023-05-07T23:48:29;7.40;99.90
